sensor_id;sensor_type;location;lat;lon;timestamp;P1;durP1;ratioP1;P2;durP2;ratioP2
32138;SDS011;18644;48.700;9.210;2023-02-19T00:01:17;1.70;;;1.50;;
32138;SDS011;18644;48.700;9.210;2023-02-19T00:03:47;1.40;;;1.30;;
32138;SDS011;18644;48.700;9.210;2023-02-19T00:06:17;1.30;;;1.20;;
32138;SDS011;18644;48.700;9.210;2023-02-19T00:08:45;3.35;;;1.40;;
32138;SDS011;18644;48.700;9.210;2023-02-19T00:11:14;1.60;;;1.40;;
32138;SDS011;18644;48.700;9.210;2023-02-19T00:13:43;2.60;;;1.50;;
32138;SDS011;18644;48.700;9.210;2023-02-19T00:16:15;2.50;;;1.52;;
32138;SDS011;18644;48.700;9.210;2023-02-19T00:18:44;1.80;;;1.30;;
32138;SDS011;18644;48.700;9.210;2023-02-19T00:21:11;1.42;;;1.33;;
32138;SDS011;18644;48.700;9.210;2023-02-19T00:23:39;1.80;;;1.50;;
32138;SDS011;18644;48.700;9.210;2023-02-19T00:26:07;1.50;;;1.30;;
32138;SDS011;18644;48.700;9.210;2023-02-19T00:28:35;1.05;;;0.98;;
32138;SDS011;18644;48.700;9.210;2023-02-19T00:31:03;1.60;;;1.30;;
32138;SDS011;18644;48.700;9.210;2023-02-19T00:33:33;1.75;;;1.38;;
32138;SDS011;18644;48.700;9.210;2023-02-19T00:36:00;1.23;;;1.13;;
32138;SDS011;18644;48.700;9.210;2023-02-19T00:38:28;1.35;;;1.25;;
32138;SDS011;18644;48.700;9.210;2023-02-19T00:40:55;1.55;;;1.27;;
32138;SDS011;18644;48.700;9.210;2023-02-19T00:43:23;1.55;;;1.38;;
32138;SDS011;18644;48.700;9.210;2023-02-19T00:45:51;1.27;;;1.08;;
32138;SDS011;18644;48.700;9.210;2023-02-19T00:48:18;6.63;;;1.52;;
32138;SDS011;18644;48.700;9.210;2023-02-19T00:50:46;1.30;;;1.05;;
32138;SDS011;18644;48.700;9.210;2023-02-19T00:53:13;1.52;;;1.42;;
32138;SDS011;18644;48.700;9.210;2023-02-19T00:55:40;1.20;;;1.10;;
32138;SDS011;18644;48.700;9.210;2023-02-19T00:58:07;4.00;;;1.40;;
32138;SDS011;18644;48.700;9.210;2023-02-19T01:00:33;1.23;;;1.10;;
32138;SDS011;18644;48.700;9.210;2023-02-19T01:03:00;1.20;;;1.10;;
32138;SDS011;18644;48.700;9.210;2023-02-19T01:05:27;0.98;;;0.98;;
32138;SDS011;18644;48.700;9.210;2023-02-19T01:07:55;1.08;;;0.90;;
32138;SDS011;18644;48.700;9.210;2023-02-19T01:10:22;1.25;;;1.10;;
32138;SDS011;18644;48.700;9.210;2023-02-19T01:12:49;1.17;;;1.08;;
32138;SDS011;18644;48.700;9.210;2023-02-19T01:15:16;2.55;;;1.40;;
32138;SDS011;18644;48.700;9.210;2023-02-19T01:17:43;0.90;;;0.90;;
32138;SDS011;18644;48.700;9.210;2023-02-19T01:20:10;2.30;;;1.02;;
32138;SDS011;18644;48.700;9.210;2023-02-19T01:22:37;1.25;;;1.05;;
32138;SDS011;18644;48.700;9.210;2023-02-19T01:25:05;1.10;;;1.00;;
32138;SDS011;18644;48.700;9.210;2023-02-19T01:27:33;1.85;;;1.50;;
32138;SDS011;18644;48.700;9.210;2023-02-19T01:30:00;4.38;;;1.25;;
32138;SDS011;18644;48.700;9.210;2023-02-19T01:32:26;1.80;;;1.55;;
32138;SDS011;18644;48.700;9.210;2023-02-19T01:34:53;5.20;;;1.60;;
32138;SDS011;18644;48.700;9.210;2023-02-19T01:37:20;1.17;;;1.08;;
32138;SDS011;18644;48.700;9.210;2023-02-19T01:39:47;1.55;;;1.33;;
32138;SDS011;18644;48.700;9.210;2023-02-19T01:42:15;1.23;;;1.10;;
32138;SDS011;18644;48.700;9.210;2023-02-19T01:48:05;1.20;;;1.10;;
32138;SDS011;18644;48.700;9.210;2023-02-19T01:50:35;1.10;;;1.00;;
32138;SDS011;18644;48.700;9.210;2023-02-19T01:53:06;1.33;;;1.20;;
32138;SDS011;18644;48.700;9.210;2023-02-19T01:55:37;1.55;;;1.35;;
32138;SDS011;18644;48.700;9.210;2023-02-19T01:58:06;3.03;;;1.50;;
32138;SDS011;18644;48.700;9.210;2023-02-19T02:00:35;2.65;;;1.40;;
32138;SDS011;18644;48.700;9.210;2023-02-19T02:03:02;2.00;;;1.30;;
32138;SDS011;18644;48.700;9.210;2023-02-19T02:05:34;1.42;;;1.30;;
32138;SDS011;18644;48.700;9.210;2023-02-19T02:08:07;2.50;;;1.40;;
32138;SDS011;18644;48.700;9.210;2023-02-19T02:10:53;1.80;;;1.30;;
32138;SDS011;18644;48.700;9.210;2023-02-19T02:13:22;1.52;;;1.30;;
32138;SDS011;18644;48.700;9.210;2023-02-19T02:15:51;1.50;;;1.40;;
32138;SDS011;18644;48.700;9.210;2023-02-19T02:18:30;1.48;;;1.38;;
32138;SDS011;18644;48.700;9.210;2023-02-19T02:21:13;1.60;;;1.48;;
32138;SDS011;18644;48.700;9.210;2023-02-19T02:24:16;1.70;;;1.58;;
32138;SDS011;18644;48.700;9.210;2023-02-19T02:27:24;1.92;;;1.40;;
32138;SDS011;18644;48.700;9.210;2023-02-19T02:30:10;3.95;;;1.48;;
32138;SDS011;18644;48.700;9.210;2023-02-19T02:33:00;5.57;;;1.20;;
32138;SDS011;18644;48.700;9.210;2023-02-19T02:35:41;1.92;;;1.75;;
32138;SDS011;18644;48.700;9.210;2023-02-19T02:38:11;3.03;;;1.50;;
32138;SDS011;18644;48.700;9.210;2023-02-19T02:40:41;2.88;;;1.30;;
32138;SDS011;18644;48.700;9.210;2023-02-19T02:43:10;5.32;;;1.58;;
32138;SDS011;18644;48.700;9.210;2023-02-19T02:45:39;1.33;;;1.23;;
32138;SDS011;18644;48.700;9.210;2023-02-19T02:48:08;1.80;;;1.48;;
32138;SDS011;18644;48.700;9.210;2023-02-19T02:50:45;2.55;;;1.38;;
32138;SDS011;18644;48.700;9.210;2023-02-19T02:53:17;1.52;;;1.42;;
32138;SDS011;18644;48.700;9.210;2023-02-19T02:56:06;1.95;;;1.80;;
32138;SDS011;18644;48.700;9.210;2023-02-19T02:58:35;1.40;;;1.30;;
32138;SDS011;18644;48.700;9.210;2023-02-19T03:01:05;1.40;;;1.30;;
32138;SDS011;18644;48.700;9.210;2023-02-19T03:03:54;2.33;;;1.58;;
32138;SDS011;18644;48.700;9.210;2023-02-19T03:06:27;1.70;;;1.42;;
32138;SDS011;18644;48.700;9.210;2023-02-19T03:09:00;2.22;;;1.30;;
32138;SDS011;18644;48.700;9.210;2023-02-19T03:11:35;1.70;;;1.60;;
32138;SDS011;18644;48.700;9.210;2023-02-19T03:14:26;2.83;;;1.92;;
32138;SDS011;18644;48.700;9.210;2023-02-19T03:17:19;1.58;;;1.45;;
32138;SDS011;18644;48.700;9.210;2023-02-19T03:20:12;1.77;;;1.55;;
32138;SDS011;18644;48.700;9.210;2023-02-19T03:22:43;1.90;;;1.40;;
32138;SDS011;18644;48.700;9.210;2023-02-19T03:25:11;1.80;;;1.60;;
32138;SDS011;18644;48.700;9.210;2023-02-19T03:28:00;1.70;;;1.60;;
32138;SDS011;18644;48.700;9.210;2023-02-19T03:30:32;1.50;;;1.40;;
32138;SDS011;18644;48.700;9.210;2023-02-19T03:33:05;1.70;;;1.20;;
32138;SDS011;18644;48.700;9.210;2023-02-19T03:35:35;1.58;;;1.48;;
32138;SDS011;18644;48.700;9.210;2023-02-19T03:40:38;1.10;;;1.00;;
32138;SDS011;18644;48.700;9.210;2023-02-19T03:43:14;1.95;;;1.30;;
32138;SDS011;18644;48.700;9.210;2023-02-19T03:48:24;1.02;;;1.00;;
32138;SDS011;18644;48.700;9.210;2023-02-19T03:51:12;2.20;;;1.20;;
32138;SDS011;18644;48.700;9.210;2023-02-19T03:53:51;1.60;;;1.48;;
32138;SDS011;18644;48.700;9.210;2023-02-19T03:56:27;2.35;;;1.08;;
32138;SDS011;18644;48.700;9.210;2023-02-19T03:59:01;1.45;;;1.35;;
32138;SDS011;18644;48.700;9.210;2023-02-19T04:01:36;1.25;;;1.15;;
32138;SDS011;18644;48.700;9.210;2023-02-19T04:04:11;2.00;;;1.10;;
32138;SDS011;18644;48.700;9.210;2023-02-19T04:06:42;1.50;;;1.20;;
32138;SDS011;18644;48.700;9.210;2023-02-19T04:09:16;1.20;;;1.10;;
32138;SDS011;18644;48.700;9.210;2023-02-19T04:11:46;0.88;;;0.88;;
32138;SDS011;18644;48.700;9.210;2023-02-19T04:14:16;1.10;;;1.10;;
32138;SDS011;18644;48.700;9.210;2023-02-19T04:16:46;1.30;;;1.20;;
32138;SDS011;18644;48.700;9.210;2023-02-19T04:19:20;0.73;;;0.73;;
32138;SDS011;18644;48.700;9.210;2023-02-19T04:21:50;0.85;;;0.73;;
32138;SDS011;18644;48.700;9.210;2023-02-19T04:24:20;0.98;;;0.93;;
32138;SDS011;18644;48.700;9.210;2023-02-19T04:26:51;0.88;;;0.80;;
32138;SDS011;18644;48.700;9.210;2023-02-19T04:29:20;1.80;;;0.70;;
32138;SDS011;18644;48.700;9.210;2023-02-19T04:31:47;1.33;;;0.90;;
32138;SDS011;18644;48.700;9.210;2023-02-19T04:34:14;0.70;;;0.70;;
32138;SDS011;18644;48.700;9.210;2023-02-19T04:36:42;0.70;;;0.70;;
32138;SDS011;18644;48.700;9.210;2023-02-19T04:39:09;0.80;;;0.60;;
32138;SDS011;18644;48.700;9.210;2023-02-19T04:41:36;0.60;;;0.60;;
32138;SDS011;18644;48.700;9.210;2023-02-19T04:44:04;0.55;;;0.55;;
32138;SDS011;18644;48.700;9.210;2023-02-19T04:46:30;0.57;;;0.50;;
32138;SDS011;18644;48.700;9.210;2023-02-19T04:48:57;0.50;;;0.50;;
32138;SDS011;18644;48.700;9.210;2023-02-19T04:51:24;0.60;;;0.60;;
32138;SDS011;18644;48.700;9.210;2023-02-19T04:53:52;0.50;;;0.50;;
32138;SDS011;18644;48.700;9.210;2023-02-19T04:56:20;2.92;;;0.70;;
32138;SDS011;18644;48.700;9.210;2023-02-19T04:58:47;0.60;;;0.60;;
32138;SDS011;18644;48.700;9.210;2023-02-19T05:01:14;0.75;;;0.52;;
32138;SDS011;18644;48.700;9.210;2023-02-19T05:03:41;0.90;;;0.63;;
32138;SDS011;18644;48.700;9.210;2023-02-19T05:06:09;0.47;;;0.47;;
32138;SDS011;18644;48.700;9.210;2023-02-19T05:08:38;0.45;;;0.45;;
32138;SDS011;18644;48.700;9.210;2023-02-19T05:11:08;0.65;;;0.50;;
32138;SDS011;18644;48.700;9.210;2023-02-19T05:13:37;0.52;;;0.52;;
32138;SDS011;18644;48.700;9.210;2023-02-19T05:16:05;0.50;;;0.50;;
32138;SDS011;18644;48.700;9.210;2023-02-19T05:18:37;0.40;;;0.40;;
32138;SDS011;18644;48.700;9.210;2023-02-19T05:21:04;0.68;;;0.50;;
32138;SDS011;18644;48.700;9.210;2023-02-19T05:23:31;1.42;;;0.60;;
32138;SDS011;18644;48.700;9.210;2023-02-19T05:25:58;0.40;;;0.40;;
32138;SDS011;18644;48.700;9.210;2023-02-19T05:28:31;0.40;;;0.40;;
32138;SDS011;18644;48.700;9.210;2023-02-19T05:31:02;0.32;;;0.32;;
32138;SDS011;18644;48.700;9.210;2023-02-19T05:33:31;0.73;;;0.40;;
32138;SDS011;18644;48.700;9.210;2023-02-19T05:35:58;0.50;;;0.50;;
32138;SDS011;18644;48.700;9.210;2023-02-19T05:41:05;0.40;;;0.40;;
32138;SDS011;18644;48.700;9.210;2023-02-19T05:43:34;0.55;;;0.40;;
32138;SDS011;18644;48.700;9.210;2023-02-19T05:46:02;1.00;;;0.40;;
32138;SDS011;18644;48.700;9.210;2023-02-19T05:48:29;0.50;;;0.50;;
32138;SDS011;18644;48.700;9.210;2023-02-19T05:50:59;0.40;;;0.40;;
32138;SDS011;18644;48.700;9.210;2023-02-19T05:53:27;0.40;;;0.40;;
32138;SDS011;18644;48.700;9.210;2023-02-19T05:55:54;0.30;;;0.30;;
32138;SDS011;18644;48.700;9.210;2023-02-19T05:58:22;0.40;;;0.40;;
32138;SDS011;18644;48.700;9.210;2023-02-19T06:00:50;0.30;;;0.30;;
32138;SDS011;18644;48.700;9.210;2023-02-19T06:03:18;0.40;;;0.40;;
32138;SDS011;18644;48.700;9.210;2023-02-19T06:05:45;0.30;;;0.30;;
32138;SDS011;18644;48.700;9.210;2023-02-19T06:08:12;0.40;;;0.40;;
32138;SDS011;18644;48.700;9.210;2023-02-19T06:10:40;0.55;;;0.55;;
32138;SDS011;18644;48.700;9.210;2023-02-19T06:13:07;0.47;;;0.47;;
32138;SDS011;18644;48.700;9.210;2023-02-19T06:15:35;0.40;;;0.40;;
32138;SDS011;18644;48.700;9.210;2023-02-19T06:18:04;1.08;;;0.47;;
32138;SDS011;18644;48.700;9.210;2023-02-19T06:20:31;0.40;;;0.40;;
32138;SDS011;18644;48.700;9.210;2023-02-19T06:22:58;0.40;;;0.40;;
32138;SDS011;18644;48.700;9.210;2023-02-19T06:25:24;0.52;;;0.52;;
32138;SDS011;18644;48.700;9.210;2023-02-19T06:27:51;0.40;;;0.40;;
32138;SDS011;18644;48.700;9.210;2023-02-19T06:30:18;0.47;;;0.40;;
32138;SDS011;18644;48.700;9.210;2023-02-19T06:32:45;0.40;;;0.40;;
32138;SDS011;18644;48.700;9.210;2023-02-19T06:35:13;0.30;;;0.30;;
32138;SDS011;18644;48.700;9.210;2023-02-19T06:37:41;0.40;;;0.40;;
32138;SDS011;18644;48.700;9.210;2023-02-19T06:40:08;0.40;;;0.40;;
32138;SDS011;18644;48.700;9.210;2023-02-19T06:42:35;0.45;;;0.45;;
32138;SDS011;18644;48.700;9.210;2023-02-19T06:45:02;0.40;;;0.40;;
32138;SDS011;18644;48.700;9.210;2023-02-19T06:47:30;0.30;;;0.30;;
32138;SDS011;18644;48.700;9.210;2023-02-19T06:49:57;0.40;;;0.40;;
32138;SDS011;18644;48.700;9.210;2023-02-19T06:52:25;0.40;;;0.40;;
32138;SDS011;18644;48.700;9.210;2023-02-19T06:54:53;0.52;;;0.52;;
32138;SDS011;18644;48.700;9.210;2023-02-19T06:57:19;0.50;;;0.50;;
32138;SDS011;18644;48.700;9.210;2023-02-19T06:59:46;0.50;;;0.50;;
32138;SDS011;18644;48.700;9.210;2023-02-19T07:02:13;0.50;;;0.50;;
32138;SDS011;18644;48.700;9.210;2023-02-19T07:04:40;0.40;;;0.40;;
32138;SDS011;18644;48.700;9.210;2023-02-19T07:07:09;0.40;;;0.40;;
32138;SDS011;18644;48.700;9.210;2023-02-19T07:09:38;0.50;;;0.50;;
32138;SDS011;18644;48.700;9.210;2023-02-19T07:12:05;0.35;;;0.35;;
32138;SDS011;18644;48.700;9.210;2023-02-19T07:14:32;0.73;;;0.63;;
32138;SDS011;18644;48.700;9.210;2023-02-19T07:16:59;0.77;;;0.50;;
32138;SDS011;18644;48.700;9.210;2023-02-19T07:19:26;0.40;;;0.40;;
32138;SDS011;18644;48.700;9.210;2023-02-19T07:21:52;0.40;;;0.40;;
32138;SDS011;18644;48.700;9.210;2023-02-19T07:24:19;1.73;;;0.50;;
32138;SDS011;18644;48.700;9.210;2023-02-19T07:26:48;0.40;;;0.40;;
32138;SDS011;18644;48.700;9.210;2023-02-19T07:29:15;0.32;;;0.32;;
32138;SDS011;18644;48.700;9.210;2023-02-19T07:31:42;0.50;;;0.50;;
32138;SDS011;18644;48.700;9.210;2023-02-19T07:34:09;0.40;;;0.40;;
32138;SDS011;18644;48.700;9.210;2023-02-19T07:36:36;0.50;;;0.50;;
32138;SDS011;18644;48.700;9.210;2023-02-19T07:39:03;0.40;;;0.40;;
32138;SDS011;18644;48.700;9.210;2023-02-19T07:41:30;0.40;;;0.40;;
32138;SDS011;18644;48.700;9.210;2023-02-19T07:43:58;0.52;;;0.52;;
32138;SDS011;18644;48.700;9.210;2023-02-19T07:46:25;0.52;;;0.52;;
32138;SDS011;18644;48.700;9.210;2023-02-19T07:48:53;0.50;;;0.50;;
32138;SDS011;18644;48.700;9.210;2023-02-19T07:51:20;0.70;;;0.70;;
32138;SDS011;18644;48.700;9.210;2023-02-19T07:53:49;1.05;;;0.60;;
32138;SDS011;18644;48.700;9.210;2023-02-19T07:56:17;0.70;;;0.70;;
32138;SDS011;18644;48.700;9.210;2023-02-19T07:58:44;0.55;;;0.52;;
32138;SDS011;18644;48.700;9.210;2023-02-19T08:01:14;0.70;;;0.70;;
32138;SDS011;18644;48.700;9.210;2023-02-19T08:03:43;0.70;;;0.70;;
32138;SDS011;18644;48.700;9.210;2023-02-19T08:06:09;2.03;;;0.85;;
32138;SDS011;18644;48.700;9.210;2023-02-19T08:08:37;0.80;;;0.80;;
32138;SDS011;18644;48.700;9.210;2023-02-19T08:11:05;0.75;;;0.75;;
32138;SDS011;18644;48.700;9.210;2023-02-19T08:13:50;0.73;;;0.73;;
32138;SDS011;18644;48.700;9.210;2023-02-19T08:16:19;0.90;;;0.80;;
32138;SDS011;18644;48.700;9.210;2023-02-19T08:18:48;0.70;;;0.60;;
32138;SDS011;18644;48.700;9.210;2023-02-19T08:21:14;1.38;;;0.63;;
32138;SDS011;18644;48.700;9.210;2023-02-19T08:23:43;0.60;;;0.60;;
32138;SDS011;18644;48.700;9.210;2023-02-19T08:26:11;0.95;;;0.80;;
32138;SDS011;18644;48.700;9.210;2023-02-19T08:28:38;0.70;;;0.70;;
32138;SDS011;18644;48.700;9.210;2023-02-19T08:31:06;2.05;;;0.90;;
32138;SDS011;18644;48.700;9.210;2023-02-19T08:33:36;0.70;;;0.70;;
32138;SDS011;18644;48.700;9.210;2023-02-19T08:36:03;0.60;;;0.60;;
32138;SDS011;18644;48.700;9.210;2023-02-19T08:38:33;1.10;;;0.65;;
32138;SDS011;18644;48.700;9.210;2023-02-19T08:41:04;0.50;;;0.50;;
32138;SDS011;18644;48.700;9.210;2023-02-19T08:43:32;0.60;;;0.57;;
32138;SDS011;18644;48.700;9.210;2023-02-19T08:45:59;0.43;;;0.43;;
32138;SDS011;18644;48.700;9.210;2023-02-19T08:48:27;2.42;;;0.90;;
32138;SDS011;18644;48.700;9.210;2023-02-19T08:50:56;0.90;;;0.70;;
32138;SDS011;18644;48.700;9.210;2023-02-19T08:53:27;0.52;;;0.52;;
32138;SDS011;18644;48.700;9.210;2023-02-19T08:55:56;1.45;;;0.60;;
32138;SDS011;18644;48.700;9.210;2023-02-19T08:58:23;0.88;;;0.80;;
32138;SDS011;18644;48.700;9.210;2023-02-19T09:00:51;0.63;;;0.63;;
32138;SDS011;18644;48.700;9.210;2023-02-19T09:03:18;0.50;;;0.50;;
32138;SDS011;18644;48.700;9.210;2023-02-19T09:05:45;0.77;;;0.70;;
32138;SDS011;18644;48.700;9.210;2023-02-19T09:08:13;0.68;;;0.63;;
32138;SDS011;18644;48.700;9.210;2023-02-19T09:10:40;0.50;;;0.50;;
32138;SDS011;18644;48.700;9.210;2023-02-19T09:13:07;0.80;;;0.60;;
32138;SDS011;18644;48.700;9.210;2023-02-19T09:15:35;0.75;;;0.73;;
32138;SDS011;18644;48.700;9.210;2023-02-19T09:18:03;0.68;;;0.60;;
32138;SDS011;18644;48.700;9.210;2023-02-19T09:20:30;0.50;;;0.45;;
32138;SDS011;18644;48.700;9.210;2023-02-19T09:22:57;1.35;;;0.60;;
32138;SDS011;18644;48.700;9.210;2023-02-19T09:25:26;0.60;;;0.60;;
32138;SDS011;18644;48.700;9.210;2023-02-19T09:27:53;4.68;;;1.20;;
32138;SDS011;18644;48.700;9.210;2023-02-19T09:30:21;0.90;;;0.68;;
32138;SDS011;18644;48.700;9.210;2023-02-19T09:32:47;0.57;;;0.57;;
32138;SDS011;18644;48.700;9.210;2023-02-19T09:35:14;1.45;;;0.80;;
32138;SDS011;18644;48.700;9.210;2023-02-19T09:37:41;0.65;;;0.50;;
32138;SDS011;18644;48.700;9.210;2023-02-19T09:40:08;2.03;;;0.90;;
32138;SDS011;18644;48.700;9.210;2023-02-19T09:42:37;1.33;;;0.80;;
32138;SDS011;18644;48.700;9.210;2023-02-19T09:45:09;1.40;;;0.70;;
32138;SDS011;18644;48.700;9.210;2023-02-19T09:47:43;1.38;;;0.75;;
32138;SDS011;18644;48.700;9.210;2023-02-19T09:50:11;1.30;;;0.70;;
32138;SDS011;18644;48.700;9.210;2023-02-19T09:52:46;1.08;;;0.80;;
32138;SDS011;18644;48.700;9.210;2023-02-19T09:55:16;1.20;;;0.70;;
32138;SDS011;18644;48.700;9.210;2023-02-19T09:57:58;3.50;;;1.05;;
32138;SDS011;18644;48.700;9.210;2023-02-19T10:00:28;3.45;;;0.82;;
32138;SDS011;18644;48.700;9.210;2023-02-19T10:03:00;1.85;;;0.80;;
32138;SDS011;18644;48.700;9.210;2023-02-19T10:05:31;2.38;;;0.90;;
32138;SDS011;18644;48.700;9.210;2023-02-19T10:07:59;1.35;;;0.80;;
32138;SDS011;18644;48.700;9.210;2023-02-19T10:10:31;1.43;;;1.00;;
32138;SDS011;18644;48.700;9.210;2023-02-19T10:13:09;1.58;;;0.80;;
32138;SDS011;18644;48.700;9.210;2023-02-19T10:15:45;7.07;;;1.70;;
32138;SDS011;18644;48.700;9.210;2023-02-19T10:18:18;1.08;;;0.80;;
32138;SDS011;18644;48.700;9.210;2023-02-19T10:20:49;1.58;;;0.80;;
32138;SDS011;18644;48.700;9.210;2023-02-19T10:23:17;1.70;;;0.70;;
32138;SDS011;18644;48.700;9.210;2023-02-19T10:25:46;2.17;;;1.20;;
32138;SDS011;18644;48.700;9.210;2023-02-19T10:28:20;2.00;;;0.98;;
32138;SDS011;18644;48.700;9.210;2023-02-19T10:30:50;2.97;;;0.95;;
32138;SDS011;18644;48.700;9.210;2023-02-19T10:33:20;2.05;;;0.90;;
32138;SDS011;18644;48.700;9.210;2023-02-19T10:35:52;1.73;;;1.00;;
32138;SDS011;18644;48.700;9.210;2023-02-19T10:38:23;2.53;;;0.90;;
32138;SDS011;18644;48.700;9.210;2023-02-19T10:43:28;2.05;;;1.00;;
32138;SDS011;18644;48.700;9.210;2023-02-19T10:46:02;1.85;;;0.98;;
32138;SDS011;18644;48.700;9.210;2023-02-19T10:48:32;3.72;;;1.00;;
32138;SDS011;18644;48.700;9.210;2023-02-19T10:51:04;0.82;;;0.70;;
32138;SDS011;18644;48.700;9.210;2023-02-19T10:53:38;1.92;;;0.70;;
32138;SDS011;18644;48.700;9.210;2023-02-19T10:56:09;1.02;;;0.73;;
32138;SDS011;18644;48.700;9.210;2023-02-19T10:58:41;1.92;;;1.00;;
32138;SDS011;18644;48.700;9.210;2023-02-19T11:01:17;1.15;;;1.00;;
32138;SDS011;18644;48.700;9.210;2023-02-19T11:03:46;2.58;;;1.00;;
32138;SDS011;18644;48.700;9.210;2023-02-19T11:06:16;2.22;;;0.90;;
32138;SDS011;18644;48.700;9.210;2023-02-19T11:08:53;3.58;;;1.08;;
32138;SDS011;18644;48.700;9.210;2023-02-19T11:11:26;1.45;;;0.70;;
32138;SDS011;18644;48.700;9.210;2023-02-19T11:14:01;3.03;;;0.85;;
32138;SDS011;18644;48.700;9.210;2023-02-19T11:16:41;2.30;;;0.90;;
32138;SDS011;18644;48.700;9.210;2023-02-19T11:19:20;1.23;;;0.70;;
32138;SDS011;18644;48.700;9.210;2023-02-19T11:21:52;1.02;;;0.80;;
32138;SDS011;18644;48.700;9.210;2023-02-19T11:24:28;4.18;;;0.70;;
32138;SDS011;18644;48.700;9.210;2023-02-19T11:26:59;0.93;;;0.77;;
32138;SDS011;18644;48.700;9.210;2023-02-19T11:29:30;1.15;;;0.80;;
32138;SDS011;18644;48.700;9.210;2023-02-19T11:37:53;1.90;;;0.80;;
32138;SDS011;18644;48.700;9.210;2023-02-19T11:40:23;1.60;;;0.75;;
32138;SDS011;18644;48.700;9.210;2023-02-19T11:43:05;1.00;;;0.70;;
32138;SDS011;18644;48.700;9.210;2023-02-19T11:45:57;3.33;;;0.80;;
32138;SDS011;18644;48.700;9.210;2023-02-19T11:51:26;0.82;;;0.70;;
32138;SDS011;18644;48.700;9.210;2023-02-19T11:54:11;1.63;;;0.70;;
32138;SDS011;18644;48.700;9.210;2023-02-19T11:57:00;5.38;;;1.10;;
32138;SDS011;18644;48.700;9.210;2023-02-19T11:59:38;1.85;;;1.10;;
32138;SDS011;18644;48.700;9.210;2023-02-19T12:02:24;1.95;;;0.77;;
32138;SDS011;18644;48.700;9.210;2023-02-19T12:08:12;3.50;;;1.58;;
32138;SDS011;18644;48.700;9.210;2023-02-19T12:11:27;2.95;;;0.80;;
32138;SDS011;18644;48.700;9.210;2023-02-19T12:14:15;2.17;;;0.60;;
32138;SDS011;18644;48.700;9.210;2023-02-19T12:17:39;1.80;;;0.80;;
32138;SDS011;18644;48.700;9.210;2023-02-19T12:20:24;0.70;;;0.65;;
32138;SDS011;18644;48.700;9.210;2023-02-19T12:23:06;1.33;;;0.65;;
32138;SDS011;18644;48.700;9.210;2023-02-19T12:25:54;0.88;;;0.77;;
32138;SDS011;18644;48.700;9.210;2023-02-19T12:28:33;2.30;;;1.00;;
32138;SDS011;18644;48.700;9.210;2023-02-19T12:31:32;3.45;;;0.70;;
32138;SDS011;18644;48.700;9.210;2023-02-19T12:34:32;0.70;;;0.70;;
32138;SDS011;18644;48.700;9.210;2023-02-19T12:37:24;3.70;;;1.48;;
32138;SDS011;18644;48.700;9.210;2023-02-19T12:40:11;2.42;;;0.80;;
32138;SDS011;18644;48.700;9.210;2023-02-19T12:42:51;1.30;;;0.80;;
32138;SDS011;18644;48.700;9.210;2023-02-19T12:45:32;1.00;;;0.75;;
32138;SDS011;18644;48.700;9.210;2023-02-19T12:48:05;2.55;;;0.80;;
32138;SDS011;18644;48.700;9.210;2023-02-19T12:50:44;1.48;;;0.70;;
32138;SDS011;18644;48.700;9.210;2023-02-19T12:53:20;1.27;;;0.80;;
32138;SDS011;18644;48.700;9.210;2023-02-19T12:56:05;2.42;;;0.98;;
32138;SDS011;18644;48.700;9.210;2023-02-19T12:58:40;3.55;;;0.60;;
32138;SDS011;18644;48.700;9.210;2023-02-19T13:01:12;1.27;;;0.70;;
32138;SDS011;18644;48.700;9.210;2023-02-19T13:03:43;0.68;;;0.68;;
32138;SDS011;18644;48.700;9.210;2023-02-19T13:06:23;3.00;;;0.88;;
32138;SDS011;18644;48.700;9.210;2023-02-19T13:08:59;4.28;;;0.90;;
32138;SDS011;18644;48.700;9.210;2023-02-19T13:11:32;0.60;;;0.50;;
32138;SDS011;18644;48.700;9.210;2023-02-19T13:14:11;1.23;;;0.75;;
32138;SDS011;18644;48.700;9.210;2023-02-19T13:16:47;1.83;;;0.82;;
32138;SDS011;18644;48.700;9.210;2023-02-19T13:19:20;1.05;;;0.95;;
32138;SDS011;18644;48.700;9.210;2023-02-19T13:21:50;2.80;;;0.90;;
32138;SDS011;18644;48.700;9.210;2023-02-19T13:24:44;2.08;;;0.63;;
32138;SDS011;18644;48.700;9.210;2023-02-19T13:27:22;0.88;;;0.65;;
32138;SDS011;18644;48.700;9.210;2023-02-19T13:30:21;0.82;;;0.70;;
32138;SDS011;18644;48.700;9.210;2023-02-19T13:33:00;2.45;;;1.00;;
32138;SDS011;18644;48.700;9.210;2023-02-19T13:35:51;1.75;;;0.70;;
32138;SDS011;18644;48.700;9.210;2023-02-19T13:38:33;1.10;;;0.70;;
32138;SDS011;18644;48.700;9.210;2023-02-19T13:41:05;3.00;;;0.85;;
32138;SDS011;18644;48.700;9.210;2023-02-19T13:43:43;2.03;;;0.80;;
32138;SDS011;18644;48.700;9.210;2023-02-19T13:46:11;2.85;;;0.80;;
32138;SDS011;18644;48.700;9.210;2023-02-19T13:48:41;2.05;;;0.90;;
32138;SDS011;18644;48.700;9.210;2023-02-19T13:54:20;3.05;;;1.30;;
32138;SDS011;18644;48.700;9.210;2023-02-19T13:59:52;1.60;;;0.80;;
32138;SDS011;18644;48.700;9.210;2023-02-19T14:02:26;2.30;;;0.95;;
32138;SDS011;18644;48.700;9.210;2023-02-19T14:04:57;1.13;;;0.70;;
32138;SDS011;18644;48.700;9.210;2023-02-19T14:07:46;1.87;;;0.80;;
32138;SDS011;18644;48.700;9.210;2023-02-19T14:19:55;1.58;;;1.20;;
32138;SDS011;18644;48.700;9.210;2023-02-19T14:25:45;5.22;;;1.08;;
32138;SDS011;18644;48.700;9.210;2023-02-19T14:28:33;2.10;;;0.77;;
32138;SDS011;18644;48.700;9.210;2023-02-19T14:31:07;0.77;;;0.60;;
32138;SDS011;18644;48.700;9.210;2023-02-19T14:33:45;1.23;;;0.70;;
32138;SDS011;18644;48.700;9.210;2023-02-19T14:36:16;2.97;;;0.80;;
32138;SDS011;18644;48.700;9.210;2023-02-19T14:38:55;1.33;;;0.70;;
32138;SDS011;18644;48.700;9.210;2023-02-19T14:41:27;1.05;;;0.73;;
32138;SDS011;18644;48.700;9.210;2023-02-19T14:43:59;1.70;;;0.80;;
32138;SDS011;18644;48.700;9.210;2023-02-19T14:46:29;2.95;;;0.90;;
32138;SDS011;18644;48.700;9.210;2023-02-19T14:48:59;2.10;;;0.90;;
32138;SDS011;18644;48.700;9.210;2023-02-19T14:51:32;2.63;;;1.35;;
32138;SDS011;18644;48.700;9.210;2023-02-19T14:54:09;1.63;;;0.82;;
32138;SDS011;18644;48.700;9.210;2023-02-19T14:56:41;4.28;;;0.70;;
32138;SDS011;18644;48.700;9.210;2023-02-19T14:59:20;1.38;;;0.70;;
32138;SDS011;18644;48.700;9.210;2023-02-19T15:01:53;0.95;;;0.70;;
32138;SDS011;18644;48.700;9.210;2023-02-19T15:04:22;2.08;;;0.80;;
32138;SDS011;18644;48.700;9.210;2023-02-19T15:06:52;1.33;;;0.80;;
32138;SDS011;18644;48.700;9.210;2023-02-19T15:09:23;1.20;;;0.65;;
32138;SDS011;18644;48.700;9.210;2023-02-19T15:11:57;2.47;;;0.93;;
32138;SDS011;18644;48.700;9.210;2023-02-19T15:14:24;2.10;;;0.60;;
32138;SDS011;18644;48.700;9.210;2023-02-19T15:16:55;1.88;;;0.80;;
32138;SDS011;18644;48.700;9.210;2023-02-19T15:19:25;1.95;;;0.73;;
32138;SDS011;18644;48.700;9.210;2023-02-19T15:21:53;2.25;;;0.80;;
32138;SDS011;18644;48.700;9.210;2023-02-19T15:24:20;1.85;;;0.73;;
32138;SDS011;18644;48.700;9.210;2023-02-19T15:26:48;2.05;;;1.05;;
32138;SDS011;18644;48.700;9.210;2023-02-19T15:29:20;2.03;;;0.80;;
32138;SDS011;18644;48.700;9.210;2023-02-19T15:31:49;1.70;;;0.95;;
32138;SDS011;18644;48.700;9.210;2023-02-19T15:34:20;2.13;;;0.85;;
32138;SDS011;18644;48.700;9.210;2023-02-19T15:36:49;3.08;;;0.90;;
32138;SDS011;18644;48.700;9.210;2023-02-19T15:39:20;2.88;;;1.05;;
32138;SDS011;18644;48.700;9.210;2023-02-19T15:41:50;1.27;;;0.70;;
32138;SDS011;18644;48.700;9.210;2023-02-19T15:44:28;1.25;;;1.00;;
32138;SDS011;18644;48.700;9.210;2023-02-19T15:47:05;5.57;;;1.00;;
32138;SDS011;18644;48.700;9.210;2023-02-19T15:49:43;3.63;;;1.10;;
32138;SDS011;18644;48.700;9.210;2023-02-19T15:52:17;1.75;;;0.90;;
32138;SDS011;18644;48.700;9.210;2023-02-19T15:54:55;3.40;;;1.30;;
32138;SDS011;18644;48.700;9.210;2023-02-19T15:57:27;1.38;;;0.93;;
32138;SDS011;18644;48.700;9.210;2023-02-19T16:00:02;2.50;;;1.00;;
32138;SDS011;18644;48.700;9.210;2023-02-19T16:02:35;5.45;;;1.38;;